createdAt,value
2023-02-06T00:00:43.226Z,-2.93
2023-02-06T00:03:45.790Z,-2.90
2023-02-06T00:06:47.245Z,-2.92
2023-02-06T00:09:49.749Z,-2.93
2023-02-06T00:12:51.797Z,-2.96
2023-02-06T00:15:54.571Z,-2.96
2023-02-06T00:18:58.781Z,-2.88
2023-02-06T00:22:00.374Z,-2.88
2023-02-06T00:25:03.446Z,-2.84
2023-02-06T00:28:05.668Z,-2.88
2023-02-06T00:31:09.288Z,-2.88
2023-02-06T00:34:10.842Z,-2.82
2023-02-06T00:37:13.439Z,-2.84
2023-02-06T00:40:14.757Z,-2.83
2023-02-06T00:43:18.460Z,-2.81
2023-02-06T00:46:20.159Z,-2.81
2023-02-06T00:49:22.708Z,-2.81
2023-02-06T00:52:25.237Z,-2.80
2023-02-06T00:55:27.812Z,-2.81
2023-02-06T00:58:29.878Z,-2.85
2023-02-06T01:01:32.579Z,-2.80
2023-02-06T01:04:33.855Z,-2.80
2023-02-06T01:07:39.197Z,-2.81
2023-02-06T01:10:42.244Z,-2.82
2023-02-06T01:13:44.154Z,-2.85
2023-02-06T01:16:46.707Z,-2.91
2023-02-06T01:19:49.280Z,-2.89
2023-02-06T01:22:52.437Z,-2.91
2023-02-06T01:25:53.723Z,-2.89
2023-02-06T01:28:57.453Z,-2.90
2023-02-06T01:32:00.002Z,-2.90
2023-02-06T01:35:01.362Z,-2.92
2023-02-06T01:38:03.932Z,-2.94
2023-02-06T01:41:06.858Z,-2.99
2023-02-06T01:44:15.398Z,-3.01
2023-02-06T01:47:18.995Z,-3.00
2023-02-06T01:50:20.304Z,-3.01
2023-02-06T01:53:24.073Z,-3.01
2023-02-06T01:56:30.659Z,-2.94
2023-02-06T01:59:33.811Z,-2.97
2023-02-06T02:02:39.972Z,-2.94
2023-02-06T02:05:43.311Z,-2.93
2023-02-06T02:12:08.250Z,-2.93
2023-02-06T02:15:11.590Z,-2.94
2023-02-06T02:18:36.285Z,-2.93
2023-02-06T02:22:02.618Z,-2.90
2023-02-06T02:25:27.803Z,-2.88
2023-02-06T02:29:05.412Z,-2.74
2023-02-06T02:32:37.458Z,-2.67
2023-02-06T02:35:51.764Z,-2.68
2023-02-06T02:39:03.039Z,-2.59
2023-02-06T02:42:12.765Z,-2.50
2023-02-06T02:45:20.678Z,-2.43
2023-02-06T02:48:24.851Z,-2.34
2023-02-06T02:51:28.131Z,-2.32
2023-02-06T02:54:29.888Z,-2.29
2023-02-06T02:57:33.224Z,-2.20
2023-02-06T03:00:40.838Z,-2.12
2023-02-06T03:03:45.652Z,-2.00
2023-02-06T03:07:04.400Z,-1.94
2023-02-06T03:10:12.835Z,-1.90
2023-02-06T03:13:23.641Z,-1.86
2023-02-06T03:16:32.888Z,-1.77
2023-02-06T03:19:40.951Z,-1.73
2023-02-06T03:22:47.008Z,-1.70
2023-02-06T03:25:53.914Z,-1.63
2023-02-06T03:29:00.850Z,-1.57
2023-02-06T03:32:08.160Z,-1.49
2023-02-06T03:35:17.175Z,-1.49
2023-02-06T03:38:19.167Z,-1.45
2023-02-06T03:41:25.952Z,-1.39
2023-02-06T03:44:33.591Z,-1.38
2023-02-06T03:47:39.164Z,-1.35
2023-02-06T03:50:43.894Z,-1.29
2023-02-06T03:53:50.684Z,-1.22
2023-02-06T03:56:55.624Z,-1.23
2023-02-06T03:59:57.042Z,-1.21
2023-02-06T04:02:59.637Z,-1.17
2023-02-06T04:06:02.354Z,-1.13
2023-02-06T04:09:04.481Z,-1.14
2023-02-06T04:12:07.592Z,-1.11
2023-02-06T04:15:09.584Z,-1.08
2023-02-06T04:18:12.080Z,-1.03
2023-02-06T04:21:13.355Z,-0.95
2023-02-06T04:24:16.653Z,-0.90
2023-02-06T04:27:18.090Z,-0.98
2023-02-06T04:30:20.726Z,-0.96
2023-02-06T04:33:22.018Z,-0.92
2023-02-06T04:36:24.671Z,-1.03
2023-02-06T04:39:28.546Z,-0.95
2023-02-06T04:42:31.138Z,-0.94
2023-02-06T04:45:32.457Z,-1.00
2023-02-06T04:48:33.923Z,-1.00
2023-02-06T04:51:37.046Z,-1.06
2023-02-06T04:54:40.249Z,-1.01
2023-02-06T04:57:42.976Z,-0.92
2023-02-06T05:00:44.267Z,-0.91
2023-02-06T05:03:46.937Z,-0.92
2023-02-06T05:06:48.270Z,-0.85
2023-02-06T05:09:50.265Z,-0.90
2023-02-06T05:12:52.866Z,-0.83
2023-02-06T05:15:54.244Z,-0.80
2023-02-06T05:18:57.943Z,-0.77
2023-02-06T05:21:59.276Z,-0.75
2023-02-06T05:25:02.675Z,-0.68
2023-02-06T05:28:06.619Z,-0.69
2023-02-06T05:31:09.481Z,-0.71
2023-02-06T05:34:10.795Z,-0.71
2023-02-06T05:37:13.761Z,-0.72
2023-02-06T05:40:17.417Z,-0.66
2023-02-06T05:43:20.022Z,-0.63
2023-02-06T05:46:21.358Z,-0.61
2023-02-06T05:49:23.961Z,-0.60
2023-02-06T05:52:25.248Z,-0.58
2023-02-06T06:02:10.699Z,-0.65
2023-02-06T06:05:12.026Z,-0.63
2023-02-06T06:08:15.521Z,-0.64
2023-02-06T06:11:17.481Z,-0.58
2023-02-06T06:14:18.865Z,-0.51
2023-02-06T06:17:20.962Z,-0.64
2023-02-06T06:20:23.992Z,-0.68
2023-02-06T06:23:25.292Z,-0.66
2023-02-06T06:26:27.539Z,-0.58
2023-02-06T06:29:29.194Z,-0.59
2023-02-06T06:32:30.482Z,-0.57
2023-02-06T06:35:32.198Z,-0.57
2023-02-06T06:38:34.046Z,-0.55
2023-02-06T06:41:45.643Z,-0.50
2023-02-06T06:44:48.192Z,-0.46
2023-02-06T06:47:49.492Z,-0.43
2023-02-06T06:50:52.028Z,-0.42
2023-02-06T06:53:53.296Z,-0.35
2023-02-06T06:56:56.513Z,-0.38
2023-02-06T06:59:58.164Z,-0.32
2023-02-06T07:02:59.498Z,-0.29
2023-02-06T07:06:00.896Z,-0.33
2023-02-06T07:09:02.197Z,-0.28
2023-02-06T07:12:05.146Z,-0.21
2023-02-06T07:15:07.276Z,-0.17
2023-02-06T07:18:11.378Z,-0.15
2023-02-06T07:21:15.091Z,-0.12
2023-02-06T07:24:16.377Z,-0.04
2023-02-06T07:27:18.900Z,0.08
2023-02-06T07:30:21.843Z,0.03
2023-02-06T07:33:23.158Z,-0.04
2023-02-06T07:36:25.691Z,-0.02
2023-02-06T07:39:27.244Z,0.02
2023-02-06T07:42:29.207Z,0.09
2023-02-06T07:45:31.077Z,0.03
2023-02-06T07:48:32.638Z,0.05
2023-02-06T07:51:35.705Z,0.21
2023-02-06T07:54:37.021Z,0.16
2023-02-06T07:57:40.221Z,0.10
2023-02-06T08:00:41.650Z,0.19
2023-02-06T08:03:42.985Z,0.09
2023-02-06T08:06:46.075Z,0.04
2023-02-06T08:09:47.648Z,0.07
2023-02-06T08:12:50.801Z,0.05
2023-02-06T08:15:52.321Z,0.11
2023-02-06T08:18:54.857Z,0.17
2023-02-06T08:21:56.311Z,0.14
2023-02-06T08:24:57.912Z,0.21
2023-02-06T08:28:00.181Z,0.24
2023-02-06T08:31:08.498Z,0.22
2023-02-06T08:34:13.840Z,0.26
2023-02-06T08:37:15.359Z,0.42
2023-02-06T08:40:17.270Z,0.40
2023-02-06T08:43:19.245Z,0.42
2023-02-06T08:46:22.332Z,0.40
2023-02-06T08:49:26.115Z,0.41
2023-02-06T08:52:28.581Z,0.44
2023-02-06T08:55:30.113Z,0.46
2023-02-06T08:58:33.985Z,0.52
2023-02-06T09:01:36.629Z,0.53
2023-02-06T09:04:39.552Z,0.58
2023-02-06T09:07:41.134Z,0.66
2023-02-06T09:10:43.805Z,0.61
2023-02-06T09:13:49.133Z,0.65
2023-02-06T09:16:51.974Z,0.63
2023-02-06T09:19:53.272Z,0.69
2023-02-06T09:22:54.522Z,0.71
2023-02-06T09:25:55.872Z,0.82
2023-02-06T09:29:00.788Z,0.80
2023-02-06T09:32:02.107Z,0.88
2023-02-06T09:35:05.178Z,0.88
2023-02-06T09:38:06.466Z,0.88
2023-02-06T09:41:17.034Z,0.91
2023-02-06T09:44:23.635Z,1.03
2023-02-06T09:47:28.428Z,1.12
2023-02-06T09:50:40.645Z,1.17
2023-02-06T09:53:54.410Z,1.21
2023-02-06T09:57:06.358Z,1.25
2023-02-06T10:00:17.938Z,1.23
2023-02-06T10:03:48.588Z,1.20
2023-02-06T10:06:57.200Z,1.12
2023-02-06T10:10:03.784Z,1.20
2023-02-06T10:13:13.166Z,1.29
2023-02-06T10:16:32.291Z,1.42
2023-02-06T10:19:42.911Z,1.41
2023-02-06T10:22:51.797Z,1.50
2023-02-06T10:26:03.501Z,1.56
2023-02-06T10:29:06.205Z,1.60
2023-02-06T10:32:21.593Z,1.59
2023-02-06T10:35:32.515Z,1.55
2023-02-06T10:38:51.992Z,1.68
2023-02-06T10:42:02.200Z,1.78
2023-02-06T10:45:57.326Z,1.85
2023-02-06T10:49:04.484Z,1.85
2023-02-06T10:52:17.844Z,1.98
2023-02-06T10:55:22.985Z,1.95
2023-02-06T10:58:28.355Z,2.06
2023-02-06T11:01:35.251Z,2.03
2023-02-06T11:04:39.923Z,2.05
2023-02-06T11:07:44.655Z,2.17
2023-02-06T11:10:46.236Z,2.18
2023-02-06T11:13:50.312Z,2.12
2023-02-06T11:16:53.688Z,2.23
2023-02-06T11:20:04.455Z,2.16
2023-02-06T11:23:15.719Z,2.07
2023-02-06T11:26:20.222Z,1.93
2023-02-06T11:29:24.946Z,1.91
2023-02-06T11:32:35.374Z,1.96
2023-02-06T11:35:40.657Z,1.96
2023-02-06T11:38:55.408Z,2.14
2023-02-06T11:41:59.297Z,1.96
2023-02-06T11:45:18.119Z,1.85
2023-02-06T11:48:38.657Z,1.97
2023-02-06T11:51:52.004Z,2.10
2023-02-06T11:54:55.239Z,2.29
2023-02-06T11:58:07.987Z,2.03
2023-02-06T12:01:18.331Z,2.06
2023-02-06T12:04:25.391Z,2.07
2023-02-06T12:07:32.912Z,1.95
2023-02-06T12:10:40.171Z,1.89
2023-02-06T12:13:47.221Z,1.96
2023-02-06T12:16:50.452Z,1.65
2023-02-06T12:20:09.274Z,1.69
2023-02-06T12:23:18.793Z,1.69
2023-02-06T12:26:24.594Z,1.56
2023-02-06T12:29:29.947Z,1.69
2023-02-06T12:32:34.325Z,1.67
2023-02-06T12:35:45.086Z,1.72
2023-02-06T12:38:52.535Z,1.67
2023-02-06T12:42:10.907Z,1.67
2023-02-06T12:45:28.218Z,1.71
2023-02-06T12:48:38.151Z,1.84
2023-02-06T12:51:50.762Z,1.55
2023-02-06T12:55:00.010Z,1.68
2023-02-06T12:58:02.481Z,1.72
2023-02-06T13:01:33.033Z,1.67
2023-02-06T13:04:38.053Z,1.68
2023-02-06T13:07:49.328Z,1.62
2023-02-06T13:11:02.127Z,1.74
2023-02-06T13:14:06.867Z,1.53
2023-02-06T13:17:12.098Z,1.45
2023-02-06T13:20:16.122Z,1.58
2023-02-06T13:23:22.884Z,1.74
2023-02-06T13:26:57.867Z,1.60
2023-02-06T13:30:37.136Z,1.74
2023-02-06T13:33:41.691Z,1.59
2023-02-06T13:36:49.786Z,1.66
2023-02-06T13:40:18.389Z,1.88
2023-02-06T13:43:26.805Z,1.81
2023-02-06T13:46:51.607Z,1.97
2023-02-06T13:50:28.698Z,2.03
2023-02-06T13:53:46.269Z,2.07
2023-02-06T13:57:11.323Z,2.06
2023-02-06T14:00:17.346Z,2.18
2023-02-06T14:03:25.081Z,2.30
2023-02-06T14:06:46.896Z,2.35
2023-02-06T14:10:20.617Z,2.28
2023-02-06T14:13:45.660Z,2.24
2023-02-06T14:16:55.315Z,2.01
2023-02-06T14:20:08.417Z,2.02
2023-02-06T14:23:20.018Z,1.98
2023-02-06T14:26:32.135Z,2.04
2023-02-06T14:29:44.809Z,2.15
2023-02-06T14:32:57.800Z,2.14
2023-02-06T14:36:14.438Z,2.12
2023-02-06T14:39:40.831Z,2.07
2023-02-06T14:42:44.973Z,1.95
2023-02-06T14:46:05.532Z,2.01
2023-02-06T14:49:16.054Z,2.11
2023-02-06T14:52:21.603Z,1.98
2023-02-06T14:55:34.576Z,2.01
2023-02-06T14:58:36.098Z,2.05
2023-02-06T15:01:37.563Z,2.11
2023-02-06T15:04:46.836Z,1.96
2023-02-06T15:07:57.151Z,1.80
2023-02-06T15:11:01.454Z,1.80
2023-02-06T15:14:05.787Z,1.86
2023-02-06T15:17:08.150Z,1.80
2023-02-06T15:20:25.732Z,1.87
2023-02-06T15:23:43.346Z,1.77
2023-02-06T15:26:53.597Z,1.72
2023-02-06T15:29:55.671Z,1.84
2023-02-06T15:32:58.160Z,1.62
2023-02-06T15:36:02.578Z,1.54
2023-02-06T15:39:06.993Z,1.56
2023-02-06T15:42:10.279Z,1.55
2023-02-06T15:45:19.544Z,1.47
2023-02-06T15:48:25.262Z,1.36
2023-02-06T15:51:29.371Z,1.39
2023-02-06T15:54:33.775Z,1.20
2023-02-06T15:57:40.305Z,1.24
2023-02-06T16:00:43.199Z,1.23
2023-02-06T16:03:45.333Z,1.29
2023-02-06T16:06:58.486Z,1.28
2023-02-06T16:10:06.244Z,1.15
2023-02-06T16:13:12.206Z,1.09
2023-02-06T16:16:20.036Z,1.07
2023-02-06T16:19:38.189Z,0.96
2023-02-06T16:22:39.598Z,0.89
2023-02-06T16:25:41.828Z,0.89
2023-02-06T16:28:54.547Z,0.91
2023-02-06T16:31:59.562Z,1.02
2023-02-06T16:38:21.782Z,0.86
2023-02-06T16:41:29.836Z,0.80
2023-02-06T16:44:44.081Z,0.75
2023-02-06T16:47:47.803Z,0.70
2023-02-06T16:50:49.241Z,0.57
2023-02-06T16:53:52.662Z,0.57
2023-02-06T16:56:56.985Z,0.50
2023-02-06T16:59:58.539Z,0.49
2023-02-06T17:03:00.227Z,0.50
2023-02-06T17:06:02.659Z,0.45
2023-02-06T17:09:08.324Z,0.38
2023-02-06T17:12:13.119Z,0.33
2023-02-06T17:15:15.560Z,0.25
2023-02-06T17:18:18.210Z,0.22
2023-02-06T17:21:28.954Z,0.11
2023-02-06T17:24:30.236Z,0.09
2023-02-06T17:27:32.438Z,0.09
2023-02-06T17:30:35.414Z,0.05
2023-02-06T17:33:38.178Z,0.00
2023-02-06T17:36:41.158Z,-0.05
2023-02-06T17:39:43.527Z,-0.09
2023-02-06T17:42:46.670Z,-0.09
2023-02-06T17:45:49.079Z,-0.17
2023-02-06T17:48:51.448Z,-0.27
2023-02-06T17:51:53.767Z,-0.29
2023-02-06T17:54:55.121Z,-0.36
2023-02-06T17:57:58.149Z,-0.38
2023-02-06T18:01:00.653Z,-0.45
2023-02-06T18:04:03.378Z,-0.49
2023-02-06T18:07:05.794Z,-0.53
2023-02-06T18:10:07.980Z,-0.56
2023-02-06T18:13:10.992Z,-0.57
2023-02-06T18:16:14.554Z,-0.60
2023-02-06T18:19:19.330Z,-0.64
2023-02-06T18:22:22.679Z,-0.66
2023-02-06T18:25:25.041Z,-0.69
2023-02-06T18:28:28.168Z,-0.71
2023-02-06T18:31:32.493Z,-0.77
2023-02-06T18:34:35.483Z,-0.84
2023-02-06T18:37:37.990Z,-0.94
2023-02-06T18:40:42.103Z,-0.96
2023-02-06T18:43:45.115Z,-0.96
2023-02-06T18:46:46.490Z,-1.04
2023-02-06T18:49:47.973Z,-1.03
2023-02-06T18:52:50.268Z,-1.05
2023-02-06T18:55:58.122Z,-1.07
2023-02-06T18:59:01.332Z,-1.13
2023-02-06T19:02:04.102Z,-1.11
2023-02-06T19:05:07.151Z,-1.19
2023-02-06T19:08:08.432Z,-1.20
2023-02-06T19:11:10.281Z,-1.30
2023-02-06T19:14:16.086Z,-1.32
2023-02-06T19:17:17.371Z,-1.34
2023-02-06T19:23:39.839Z,-1.35
2023-02-06T19:26:42.844Z,-1.39
2023-02-06T19:29:45.058Z,-1.39
2023-02-06T19:32:49.175Z,-1.43
2023-02-06T19:35:51.468Z,-1.51
2023-02-06T19:38:56.052Z,-1.59
2023-02-06T19:41:57.325Z,-1.64
2023-02-06T19:45:00.594Z,-1.71
2023-02-06T19:48:01.931Z,-1.68
2023-02-06T19:54:25.595Z,-1.77
2023-02-06T19:57:28.264Z,-1.86
2023-02-06T20:00:31.485Z,-1.88
2023-02-06T20:03:33.158Z,-1.84
2023-02-06T20:06:38.531Z,-1.91
2023-02-06T20:09:41.991Z,-1.91
2023-02-06T20:12:44.783Z,-1.93
2023-02-06T20:19:09.941Z,-2.02
2023-02-06T20:22:12.582Z,-2.08
2023-02-06T20:25:14.045Z,-2.06
2023-02-06T20:28:16.760Z,-2.12
2023-02-06T20:31:19.960Z,-2.19
2023-02-06T20:34:21.764Z,-2.19
2023-02-06T20:37:23.740Z,-2.25
2023-02-06T20:40:25.040Z,-2.26
2023-02-06T20:43:26.488Z,-2.28
2023-02-06T20:46:31.817Z,-2.34
2023-02-06T20:49:33.355Z,-2.37
2023-02-06T20:52:36.575Z,-2.35
2023-02-06T20:55:40.897Z,-2.41
2023-02-06T20:58:43.119Z,-2.44
2023-02-06T21:01:45.249Z,-2.30
2023-02-06T21:04:47.809Z,-2.40
2023-02-06T21:07:50.359Z,-2.48
2023-02-06T21:10:52.397Z,-2.52
2023-02-06T21:13:53.726Z,-2.50
2023-02-06T21:16:56.121Z,-2.54
2023-02-06T21:19:57.521Z,-2.63
2023-02-06T21:23:00.043Z,-2.62
2023-02-06T21:26:01.510Z,-2.61
2023-02-06T21:29:03.764Z,-2.61
2023-02-06T21:32:13.726Z,-2.55
2023-02-06T21:35:16.915Z,-2.72
2023-02-06T21:38:19.955Z,-2.72
2023-02-06T21:41:21.296Z,-2.81
2023-02-06T21:44:23.833Z,-2.83
2023-02-06T21:47:25.845Z,-2.82
2023-02-06T21:50:28.534Z,-2.89
2023-02-06T21:53:31.053Z,-2.89
2023-02-06T21:56:32.372Z,-2.88
2023-02-06T21:59:34.905Z,-2.92
2023-02-06T22:02:37.687Z,-2.99
2023-02-06T22:05:40.597Z,-2.96
2023-02-06T22:08:43.629Z,-2.97
2023-02-06T22:11:46.560Z,-3.01
2023-02-06T22:14:47.878Z,-2.99
2023-02-06T22:17:49.833Z,-2.99
2023-02-06T22:21:03.598Z,-3.03
2023-02-06T22:24:08.126Z,-3.12
2023-02-06T22:27:09.674Z,-3.14
2023-02-06T22:30:13.283Z,-3.06
2023-02-06T22:33:15.269Z,-3.04
2023-02-06T22:36:20.202Z,-3.23
2023-02-06T22:39:22.760Z,-3.30
2023-02-06T22:42:24.081Z,-3.38
2023-02-06T22:45:26.648Z,-3.41
2023-02-06T22:48:28.758Z,-3.40
2023-02-06T22:51:31.353Z,-3.36
2023-02-06T22:54:32.617Z,-3.42
2023-02-06T22:57:37.642Z,-3.41
2023-02-06T23:04:02.895Z,-3.42
2023-02-06T23:07:05.906Z,-3.49
2023-02-06T23:10:08.772Z,-3.46
2023-02-06T23:13:10.066Z,-3.53
2023-02-06T23:16:12.996Z,-3.53
2023-02-06T23:19:15.284Z,-3.62
2023-02-06T23:22:24.939Z,-3.61
2023-02-06T23:25:27.589Z,-3.58
2023-02-06T23:28:29.167Z,-3.60
2023-02-06T23:31:32.401Z,-3.57
2023-02-06T23:34:34.369Z,-3.57
2023-02-06T23:37:36.939Z,-3.60
2023-02-06T23:40:39.682Z,-3.54
2023-02-06T23:43:42.213Z,-3.57
2023-02-06T23:46:44.761Z,-3.58
2023-02-06T23:49:46.722Z,-3.60
2023-02-06T23:52:49.545Z,-3.63
2023-02-06T23:55:52.277Z,-3.60
2023-02-06T23:58:54.619Z,-3.62
